Time;durP1;ratioP1;P1;durP2;ratioP2;P2;SDS_P1;SDS_P2;PMS_P1;PMS_P2;Temp;Humidity;BMP_temperature;BMP_pressure;BME280_temperature;BME280_humidity;BME280_pressure;Samples;Min_cycle;Max_cycle;Signal;HPM_P1;HPM_P2
2021/01/13 00:00:35;;;;;;;17.58;9.73;;;1.10;99.90;;;;;;4987353;28;20202;-72
2021/01/13 00:03:20;;;;;;;17.75;10.05;;;1.10;99.90;;;;;;4981502;28;20266;-73
2021/01/13 00:06:06;;;;;;;17.48;10.07;;;1.10;99.90;;;;;;4989190;28;20234;-73
2021/01/13 00:08:51;;;;;;;20.40;11.23;;;1.10;99.90;;;;;;4980628;28;20308;-72
2021/01/13 00:11:37;;;;;;;20.27;11.30;;;1.10;99.90;;;;;;4979959;28;20686;-72
2021/01/13 00:14:22;;;;;;;16.98;10.95;;;1.10;99.90;;;;;;4995385;28;20239;-73
2021/01/13 00:17:07;;;;;;;22.13;10.88;;;1.10;99.90;;;;;;4985633;28;20243;-73
2021/01/13 00:19:52;;;;;;;16.33;10.50;;;1.10;99.90;;;;;;4980440;28;20210;-73
2021/01/13 00:22:38;;;;;;;18.08;10.38;;;1.10;99.90;;;;;;4983488;28;20203;-73
2021/01/13 00:25:23;;;;;;;14.93;10.13;;;1.10;99.90;;;;;;4981385;28;20282;-73
2021/01/13 00:28:08;;;;;;;15.60;10.20;;;1.00;99.90;;;;;;4974660;28;20319;-73
2021/01/13 00:30:54;;;;;;;14.68;10.20;;;0.90;99.90;;;;;;4988318;28;20239;-73
2021/01/13 00:33:39;;;;;;;16.33;8.98;;;0.90;99.90;;;;;;4976893;28;20207;-73
2021/01/13 00:36:25;;;;;;;13.18;9.20;;;0.90;99.90;;;;;;4981178;28;20600;-73
2021/01/13 00:39:11;;;;;;;16.02;9.35;;;0.90;99.90;;;;;;4981016;28;20302;-72
2021/01/13 00:41:56;;;;;;;14.80;10.25;;;0.90;99.90;;;;;;4983777;28;20206;-73
2021/01/13 00:44:41;;;;;;;14.70;10.18;;;1.00;99.90;;;;;;4990668;28;20230;-73
2021/01/13 00:47:26;;;;;;;17.35;12.48;;;1.00;99.90;;;;;;4981213;28;20318;-73
2021/01/13 00:50:12;;;;;;;18.83;11.00;;;1.10;99.90;;;;;;4981585;28;20706;-73
2021/01/13 00:52:57;;;;;;;17.38;10.60;;;1.10;99.90;;;;;;4979580;28;20777;-73
2021/01/13 00:55:43;;;;;;;19.20;10.35;;;1.10;99.90;;;;;;4973418;28;20258;-71
2021/01/13 00:58:28;;;;;;;18.63;8.93;;;1.10;99.90;;;;;;4981133;28;20210;-72
2021/01/13 01:01:14;;;;;;;16.00;10.07;;;1.10;99.90;;;;;;4981841;28;21350;-71
2021/01/13 01:04:00;;;;;;;21.98;10.25;;;1.00;99.90;;;;;;4980764;28;20279;-73
2021/01/13 01:06:47;;;;;;;18.38;10.70;;;1.00;99.90;;;;;;4981428;28;20250;-73
2021/01/13 01:09:33;;;;;;;28.50;10.98;;;1.00;99.90;;;;;;4985548;28;20199;-73
2021/01/13 01:12:19;;;;;;;17.33;10.65;;;1.00;99.90;;;;;;4985907;28;20575;-73
2021/01/13 01:15:05;;;;;;;16.70;10.20;;;0.90;99.90;;;;;;4984316;28;20226;-73
2021/01/13 01:17:51;;;;;;;16.15;11.02;;;0.90;99.90;;;;;;4976709;28;20247;-73
2021/01/13 01:20:36;;;;;;;15.00;9.90;;;0.90;99.90;;;;;;4986660;28;20585;-73
2021/01/13 01:23:21;;;;;;;17.20;11.02;;;1.00;99.90;;;;;;4989569;28;20282;-74
2021/01/13 01:26:06;;;;;;;14.50;10.13;;;1.10;99.90;;;;;;4985627;28;20277;-73
2021/01/13 01:28:52;;;;;;;26.38;10.60;;;1.00;99.90;;;;;;4982969;28;20234;-73
2021/01/13 01:31:37;;;;;;;17.08;10.80;;;0.90;99.90;;;;;;4990738;28;20218;-72
2021/01/13 01:34:22;;;;;;;20.85;10.80;;;0.90;99.90;;;;;;4986386;28;20355;-72
2021/01/13 01:37:08;;;;;;;14.13;9.82;;;0.90;99.90;;;;;;4987132;28;20200;-72
2021/01/13 01:39:53;;;;;;;27.33;10.90;;;0.90;99.90;;;;;;4981582;28;20422;-73
2021/01/13 01:42:45;;;;;;;16.00;10.27;;;0.80;99.90;;;;;;4984168;28;20294;-73
2021/01/13 01:45:32;;;;;;;15.55;9.65;;;0.80;99.90;;;;;;4986332;28;20293;-74
2021/01/13 01:48:25;;;;;;;19.55;9.40;;;0.90;99.90;;;;;;4991355;28;20327;-73
2021/01/13 01:51:16;;;;;;;15.88;9.68;;;0.80;99.90;;;;;;4991905;28;20573;-73
2021/01/13 01:54:15;;;;;;;15.75;10.30;;;0.90;99.90;;;;;;4982410;28;20749;-73
2021/01/13 01:57:03;;;;;;;18.70;10.88;;;0.90;99.90;;;;;;4979936;28;20665;-72
2021/01/13 01:59:52;;;;;;;12.55;9.52;;;0.90;99.90;;;;;;4985916;28;20206;-73
2021/01/13 02:02:41;;;;;;;13.70;8.35;;;0.80;99.90;;;;;;4986652;28;20208;-73
2021/01/13 02:05:27;;;;;;;14.82;10.35;;;0.70;99.90;;;;;;4989756;28;20838;-73
2021/01/13 02:08:21;;;;;;;14.85;10.15;;;0.70;99.90;;;;;;4984845;28;20231;-74
2021/01/13 02:11:13;;;;;;;15.95;9.80;;;0.70;99.90;;;;;;4984305;28;20271;-72
2021/01/13 02:13:59;;;;;;;20.98;9.38;;;0.80;99.90;;;;;;4990332;28;20200;-73
2021/01/13 02:16:50;;;;;;;24.08;9.52;;;0.80;99.90;;;;;;4987465;28;20211;-73
2021/01/13 02:20:13;;;;;;;14.25;9.02;;;0.80;99.90;;;;;;4983295;28;20298;-73
2021/01/13 02:23:01;;;;;;;14.07;9.48;;;0.80;99.90;;;;;;4977895;28;20622;-73
2021/01/13 02:26:23;;;;;;;21.80;9.63;;;0.80;99.90;;;;;;4983614;28;20234;-73
2021/01/13 02:29:34;;;;;;;16.27;8.27;;;0.70;99.90;;;;;;4986964;28;20211;-73
2021/01/13 02:32:23;;;;;;;14.25;8.93;;;0.70;99.90;;;;;;4986072;28;20833;-73
2021/01/13 02:35:19;;;;;;;18.67;10.82;;;0.60;99.90;;;;;;4992369;28;20242;-73
2021/01/13 02:38:08;;;;;;;15.13;8.80;;;0.50;99.90;;;;;;4985477;28;20291;-72
2021/01/13 02:40:58;;;;;;;16.15;9.07;;;0.50;99.90;;;;;;4985812;28;20651;-73
2021/01/13 02:43:52;;;;;;;17.08;8.90;;;0.60;99.90;;;;;;4985889;28;20722;-73
2021/01/13 02:47:07;;;;;;;18.27;9.00;;;0.50;99.90;;;;;;4983571;28;20214;-74
2021/01/13 02:49:56;;;;;;;14.85;8.38;;;0.50;99.90;;;;;;4983880;28;20874;-73
2021/01/13 02:53:02;;;;;;;13.75;7.20;;;0.40;99.90;;;;;;4989299;28;20235;-73
2021/01/13 02:56:05;;;;;;;13.73;8.20;;;0.40;99.90;;;;;;4985437;28;20304;-73
2021/01/13 02:59:01;;;;;;;8.90;6.88;;;0.40;99.90;;;;;;4989716;28;20672;-73
2021/01/13 03:01:46;;;;;;;14.13;7.93;;;0.30;99.90;;;;;;4981255;28;20199;-72
2021/01/13 03:04:32;;;;;;;17.02;7.40;;;0.20;99.90;;;;;;4977649;28;20231;-73
2021/01/13 03:07:26;;;;;;;16.13;6.50;;;0.20;99.90;;;;;;4982967;28;20718;-73
2021/01/13 03:10:14;;;;;;;10.85;7.20;;;0.10;99.90;;;;;;4985347;28;20211;-73
2021/01/13 03:13:00;;;;;;;10.60;7.03;;;0.10;99.90;;;;;;4988552;28;20218;-73
2021/01/13 03:15:46;;;;;;;17.58;7.70;;;0.10;99.90;;;;;;4985497;28;20226;-72
2021/01/13 03:18:45;;;;;;;11.68;6.93;;;0.00;99.90;;;;;;4982069;28;20572;-73
2021/01/13 03:21:40;;;;;;;13.20;6.30;;;-0.10;99.90;;;;;;4988698;28;20279;-73
2021/01/13 03:24:44;;;;;;;13.25;7.43;;;-0.10;99.90;;;;;;4985805;28;20876;-73
2021/01/13 03:27:33;;;;;;;10.60;7.90;;;-0.10;99.90;;;;;;4983365;28;20218;-74
2021/01/13 03:30:19;;;;;;;11.40;6.28;;;0.00;99.90;;;;;;4982220;28;20761;-73
2021/01/13 03:33:37;;;;;;;16.73;7.55;;;-0.10;99.90;;;;;;4984841;28;20211;-74
2021/01/13 03:36:35;;;;;;;12.52;7.07;;;-0.10;99.90;;;;;;4975472;28;20202;-73
2021/01/13 03:39:23;;;;;;;13.02;6.95;;;-0.10;99.90;;;;;;4984221;28;20254;-73
2021/01/13 03:42:11;;;;;;;10.88;6.78;;;-0.20;99.90;;;;;;4989145;28;20206;-73
2021/01/13 03:45:05;;;;;;;10.75;6.47;;;-0.20;99.90;;;;;;4983203;28;20302;-72
2021/01/13 03:48:08;;;;;;;14.15;7.20;;;-0.20;99.90;;;;;;4982341;28;20229;-73
2021/01/13 03:50:55;;;;;;;10.43;6.20;;;-0.30;99.90;;;;;;4984696;28;20608;-73
2021/01/13 03:53:41;;;;;;;14.80;6.57;;;-0.30;99.90;;;;;;4981904;28;20279;-73
2021/01/13 03:56:29;;;;;;;8.60;4.95;;;-0.40;99.90;;;;;;4985527;28;20246;-73
2021/01/13 03:59:20;;;;;;;10.25;5.00;;;-0.40;99.90;;;;;;4985516;28;20210;-72
2021/01/13 04:02:06;;;;;;;17.63;5.70;;;-0.40;99.90;;;;;;4981986;28;20283;-73
2021/01/13 04:05:20;;;;;;;19.95;5.70;;;-0.50;99.90;;;;;;4981495;28;20632;-72
2021/01/13 04:08:06;;;;;;;11.18;5.88;;;-0.50;99.90;;;;;;4985737;28;20234;-73
2021/01/13 04:10:52;;;;;;;16.98;5.95;;;-0.50;99.90;;;;;;4989683;28;20567;-72
2021/01/13 04:13:43;;;;;;;14.00;6.10;;;-0.50;99.90;;;;;;4993702;28;20210;-73
2021/01/13 04:16:36;;;;;;;9.45;5.18;;;-0.50;99.90;;;;;;4986002;28;20329;-73
2021/01/13 04:19:21;;;;;;;12.27;5.80;;;-0.40;99.90;;;;;;4984112;28;20210;-73
2021/01/13 04:22:07;;;;;;;12.90;8.50;;;-0.40;99.90;;;;;;4985117;28;20210;-72
2021/01/13 04:24:54;;;;;;;13.05;6.68;;;-0.40;99.90;;;;;;4984882;28;20234;-73
2021/01/13 04:27:39;;;;;;;15.75;6.78;;;-0.40;99.90;;;;;;4983506;28;20635;-73
2021/01/13 04:30:26;;;;;;;24.65;7.10;;;-0.50;99.90;;;;;;4985709;28;20858;-74
2021/01/13 04:33:12;;;;;;;24.17;9.57;;;-0.50;99.90;;;;;;4984259;28;20214;-73
2021/01/13 04:35:58;;;;;;;24.65;8.77;;;-0.50;99.90;;;;;;4982036;28;20223;-73
2021/01/13 04:38:45;;;;;;;20.92;9.43;;;-0.60;99.90;;;;;;4987749;28;20202;-73
2021/01/13 04:41:54;;;;;;;28.55;11.88;;;-0.70;99.90;;;;;;4983958;28;20226;-73
2021/01/13 04:45:06;;;;;;;41.40;9.93;;;-0.70;99.90;;;;;;4985861;28;20769;-73
2021/01/13 04:47:58;;;;;;;19.17;9.50;;;-0.80;99.90;;;;;;4979764;28;20981;-72
2021/01/13 04:50:45;;;;;;;41.17;10.32;;;-0.80;99.90;;;;;;4976422;28;20207;-72
2021/01/13 04:53:35;;;;;;;19.65;9.40;;;-0.90;99.90;;;;;;4988919;28;20210;-73
2021/01/13 04:56:23;;;;;;;16.70;10.05;;;-1.00;99.90;;;;;;4987863;28;20202;-73
2021/01/13 04:59:55;;;;;;;22.20;9.63;;;-1.00;99.90;;;;;;4985148;28;20220;-73
2021/01/13 05:03:15;;;;;;;27.60;11.88;;;-1.10;99.90;;;;;;4987902;28;20202;-73
2021/01/13 05:06:26;;;;;;;35.05;11.13;;;-1.10;99.90;;;;;;4982006;28;20346;-72
2021/01/13 05:09:11;;;;;;;16.67;11.10;;;-1.10;99.90;;;;;;4989977;28;20210;-73
2021/01/13 05:11:57;;;;;;;23.17;11.95;;;-1.10;99.90;;;;;;4989749;28;20254;-72
2021/01/13 05:14:45;;;;;;;18.13;11.90;;;-1.20;99.90;;;;;;4984564;28;20880;-73
2021/01/13 05:17:35;;;;;;;20.10;10.90;;;-1.20;99.90;;;;;;4987287;28;20199;-73
2021/01/13 05:20:26;;;;;;;14.52;9.60;;;-1.10;99.90;;;;;;4989765;28;20775;-73
2021/01/13 05:23:13;;;;;;;19.90;11.10;;;-1.10;99.90;;;;;;4985319;28;20219;-73
2021/01/13 05:25:58;;;;;;;16.98;10.50;;;-1.00;99.90;;;;;;4995412;28;20226;-73
2021/01/13 05:29:16;;;;;;;15.07;9.20;;;-1.00;99.90;;;;;;4982281;28;20263;-72
2021/01/13 05:32:03;;;;;;;13.20;8.85;;;-1.00;99.90;;;;;;4980515;28;20254;-72
2021/01/13 05:34:57;;;;;;;17.35;9.60;;;-1.00;99.90;;;;;;4980680;28;20293;-72
2021/01/13 05:37:49;;;;;;;14.80;8.02;;;-1.20;99.90;;;;;;4990762;28;20203;-73
2021/01/13 05:40:40;;;;;;;11.82;7.30;;;-1.30;99.90;;;;;;4978383;28;20230;-73
2021/01/13 05:43:26;;;;;;;14.50;7.93;;;-1.40;99.90;;;;;;4992151;28;20238;-73
2021/01/13 05:46:12;;;;;;;11.45;8.23;;;-1.40;99.90;;;;;;4986759;28;20238;-72
2021/01/13 05:49:00;;;;;;;13.10;7.50;;;-1.40;99.90;;;;;;4988785;28;20214;-73
2021/01/13 05:51:46;;;;;;;12.02;7.32;;;-1.40;99.90;;;;;;4985445;28;20287;-73
2021/01/13 05:54:35;;;;;;;16.40;8.50;;;-1.30;99.90;;;;;;4987241;28;20283;-72
2021/01/13 05:57:23;;;;;;;14.23;7.68;;;-1.20;99.90;;;;;;4987099;28;20282;-73
2021/01/13 06:00:16;;;;;;;12.43;7.90;;;-1.20;99.90;;;;;;4987656;28;20787;-73
2021/01/13 06:03:03;;;;;;;16.25;7.85;;;-1.20;99.90;;;;;;4986289;28;20779;-72
2021/01/13 06:05:50;;;;;;;10.40;7.47;;;-1.30;99.90;;;;;;4986121;28;20218;-73
2021/01/13 06:08:44;;;;;;;17.70;8.80;;;-1.40;99.90;;;;;;4985428;28;20250;-73
2021/01/13 06:11:34;;;;;;;17.88;8.55;;;-1.40;99.90;;;;;;4989960;28;20202;-73
2021/01/13 06:14:24;;;;;;;14.10;7.20;;;-1.30;99.90;;;;;;4988666;28;20251;-74
2021/01/13 06:17:18;;;;;;;12.10;7.90;;;-1.40;99.90;;;;;;4989788;28;20586;-72
2021/01/13 06:20:05;;;;;;;13.60;8.27;;;-1.50;99.90;;;;;;4991300;28;20297;-73
2021/01/13 06:22:52;;;;;;;10.68;7.13;;;-1.60;99.90;;;;;;4988049;28;20203;-72
2021/01/13 06:25:40;;;;;;;18.75;8.23;;;-1.60;99.90;;;;;;4987903;28;20226;-73
2021/01/13 06:29:07;;;;;;;11.15;7.78;;;-1.50;99.90;;;;;;4992055;28;20301;-73
2021/01/13 06:31:57;;;;;;;15.55;8.40;;;-1.40;99.90;;;;;;4984807;28;20282;-73
2021/01/13 06:34:55;;;;;;;11.63;7.80;;;-1.50;99.90;;;;;;4989976;28;20277;-72
2021/01/13 06:37:48;;;;;;;11.70;8.25;;;-1.50;99.90;;;;;;4981983;28;20199;-73
2021/01/13 06:40:34;;;;;;;17.75;9.13;;;-1.60;99.90;;;;;;4984285;28;20254;-73
2021/01/13 06:43:19;;;;;;;18.05;9.20;;;-1.70;99.90;;;;;;4989553;28;20212;-73
2021/01/13 06:46:19;;;;;;;13.63;8.30;;;-1.60;99.90;;;;;;4986364;28;20230;-73
2021/01/13 06:49:15;;;;;;;13.93;8.13;;;-1.70;99.90;;;;;;4983500;28;20203;-72
2021/01/13 06:52:01;;;;;;;14.80;9.10;;;-1.70;99.90;;;;;;4985164;28;20218;-73
2021/01/13 06:54:48;;;;;;;20.80;8.73;;;-1.70;99.90;;;;;;4983223;28;20637;-73
2021/01/13 06:57:33;;;;;;;15.02;8.85;;;-1.70;99.90;;;;;;4990475;28;20203;-73
2021/01/13 07:00:20;;;;;;;14.95;10.00;;;-1.70;99.90;;;;;;4983880;28;20211;-73
2021/01/13 07:03:29;;;;;;;19.23;9.57;;;-1.70;99.90;;;;;;4982258;28;20226;-73
2021/01/13 07:06:14;;;;;;;13.18;8.80;;;-1.80;99.90;;;;;;4981815;28;20285;-73
2021/01/13 07:08:59;;;;;;;18.58;8.82;;;-2.00;99.90;;;;;;4987301;28;20647;-72
2021/01/13 07:11:44;;;;;;;19.98;10.30;;;-2.00;99.90;;;;;;4986814;28;20209;-72
2021/01/13 07:14:30;;;;;;;19.52;11.88;;;-2.00;99.90;;;;;;4980339;28;20230;-73
2021/01/13 07:17:17;;;;;;;21.17;11.63;;;-2.00;99.90;;;;;;4983806;28;20327;-73
2021/01/13 07:20:05;;;;;;;19.35;10.90;;;-1.90;99.90;;;;;;4979155;28;20628;-72
2021/01/13 07:22:50;;;;;;;18.33;11.07;;;-2.00;99.90;;;;;;4989095;28;20211;-73
2021/01/13 07:25:44;;;;;;;22.73;11.48;;;-1.90;99.90;;;;;;4985439;28;20227;-73
2021/01/13 07:28:33;;;;;;;15.32;10.85;;;-1.70;99.90;;;;;;4983741;28;20281;-73
2021/01/13 07:31:28;;;;;;;22.95;13.00;;;-1.80;99.90;;;;;;4979533;28;20593;-74
2021/01/13 07:34:22;;;;;;;18.30;11.32;;;-1.80;99.90;;;;;;4983091;28;20346;-73
2021/01/13 07:37:11;;;;;;;16.17;10.40;;;-1.90;99.90;;;;;;4983889;28;20239;-73
2021/01/13 07:40:31;;;;;;;15.70;10.32;;;-1.90;99.90;;;;;;4983197;28;20553;-73
2021/01/13 07:43:46;;;;;;;13.52;9.82;;;-1.90;99.90;;;;;;4983162;28;20295;-72
2021/01/13 07:46:33;;;;;;;16.77;11.05;;;-1.90;99.90;;;;;;4978325;28;20211;-74
2021/01/13 07:49:20;;;;;;;22.70;12.55;;;-1.80;99.90;;;;;;4983593;28;20656;-72
2021/01/13 07:52:10;;;;;;;19.13;11.40;;;-1.80;99.90;;;;;;4982117;28;20342;-73
2021/01/13 07:55:02;;;;;;;25.30;11.75;;;-1.80;99.90;;;;;;4980929;28;20307;-73
2021/01/13 07:57:48;;;;;;;20.52;13.13;;;-1.70;99.90;;;;;;4983067;28;20288;-73
2021/01/13 08:00:36;;;;;;;18.17;12.07;;;-1.70;99.90;;;;;;4981110;28;20233;-73
2021/01/13 08:04:06;;;;;;;23.67;12.07;;;-1.60;99.90;;;;;;4985963;28;20222;-73
2021/01/13 08:06:54;;;;;;;20.48;10.82;;;-1.50;99.90;;;;;;4983164;28;20703;-73
2021/01/13 08:09:48;;;;;;;15.90;10.52;;;-1.40;99.90;;;;;;4982855;28;20210;-73
2021/01/13 08:13:15;;;;;;;19.67;11.65;;;-1.40;99.90;;;;;;4983500;28;20293;-73
2021/01/13 08:16:31;;;;;;;17.10;10.15;;;-1.40;99.90;;;;;;4982675;28;20231;-73
2021/01/13 08:20:02;;;;;;;18.00;10.95;;;-1.40;99.90;;;;;;4992258;28;20711;-73
2021/01/13 08:22:58;;;;;;;22.75;9.45;;;-1.20;99.90;;;;;;4981004;28;20595;-73
2021/01/13 08:25:52;;;;;;;13.77;10.20;;;-1.10;99.90;;;;;;4983963;28;20222;-73
2021/01/13 08:28:39;;;;;;;18.27;11.52;;;-1.10;99.90;;;;;;4985411;28;20294;-73
2021/01/13 08:31:26;;;;;;;22.85;12.25;;;-1.10;99.90;;;;;;4988825;28;20297;-73
2021/01/13 08:34:12;;;;;;;21.73;12.95;;;-1.10;99.90;;;;;;4988517;28;20574;-73
2021/01/13 08:36:57;;;;;;;26.05;12.75;;;-1.10;99.90;;;;;;4984973;28;20331;-73
2021/01/13 08:39:43;;;;;;;15.88;11.20;;;-1.00;99.90;;;;;;4986649;28;20205;-73
2021/01/13 08:42:30;;;;;;;20.85;13.85;;;-0.90;99.90;;;;;;4991613;28;20206;-73
2021/01/13 08:45:34;;;;;;;18.98;12.18;;;-0.90;99.90;;;;;;4990382;28;20273;-73
2021/01/13 08:48:21;;;;;;;19.63;13.45;;;-0.90;99.90;;;;;;4989648;28;20374;-73
2021/01/13 08:51:14;;;;;;;28.75;17.85;;;-0.70;99.90;;;;;;4987308;28;20206;-73
2021/01/13 08:54:18;;;;;;;36.03;20.58;;;-0.70;99.90;;;;;;4985392;28;20226;-73
2021/01/13 08:57:07;;;;;;;36.30;20.42;;;-0.70;99.90;;;;;;4982412;28;20258;-73
2021/01/13 08:59:54;;;;;;;29.65;21.00;;;-0.60;99.90;;;;;;4988780;28;20219;-72
2021/01/13 09:03:05;;;;;;;28.27;16.67;;;-0.50;99.90;;;;;;4982031;28;20211;-73
2021/01/13 09:05:51;;;;;;;33.30;16.90;;;-0.40;99.90;;;;;;4986208;28;20277;-72
2021/01/13 09:08:37;;;;;;;28.77;17.70;;;-0.30;99.90;;;;;;4984889;28;20223;-73
2021/01/13 09:11:33;;;;;;;26.15;18.33;;;-0.30;99.90;;;;;;4986759;28;20211;-73
2021/01/13 09:14:20;;;;;;;39.90;19.98;;;-0.40;99.90;;;;;;4994990;28;20263;-73
2021/01/13 09:17:15;;;;;;;37.60;19.70;;;-0.40;99.90;;;;;;4984826;28;20256;-73
2021/01/13 09:20:01;;;;;;;27.05;17.75;;;-0.50;99.90;;;;;;4987065;28;20589;-73
2021/01/13 09:22:48;;;;;;;24.77;17.40;;;-0.40;99.90;;;;;;4986166;28;20242;-73
2021/01/13 09:25:44;;;;;;;35.35;20.08;;;-0.30;99.90;;;;;;4984177;28;20227;-73
2021/01/13 09:28:32;;;;;;;31.80;19.42;;;-0.30;99.90;;;;;;4989503;28;20226;-73
2021/01/13 09:31:18;;;;;;;28.30;19.90;;;-0.40;99.90;;;;;;4986303;28;20211;-73
2021/01/13 09:34:05;;;;;;;38.38;20.08;;;-0.40;99.90;;;;;;4979745;28;20261;-73
2021/01/13 09:36:58;;;;;;;37.45;22.20;;;-0.20;99.90;;;;;;4984397;28;20210;-73
2021/01/13 09:39:56;;;;;;;32.90;21.65;;;-0.20;99.90;;;;;;4988038;28;20218;-73
2021/01/13 09:42:44;;;;;;;31.65;18.98;;;-0.10;99.90;;;;;;4987412;28;20730;-74
2021/01/13 09:45:38;;;;;;;28.63;20.38;;;-0.10;99.90;;;;;;4989721;28;20283;-72
2021/01/13 09:48:25;;;;;;;32.25;19.98;;;0.00;99.90;;;;;;4983201;28;20233;-73
2021/01/13 09:51:11;;;;;;;35.05;21.70;;;0.00;99.90;;;;;;4987055;28;20242;-73
2021/01/13 09:53:58;;;;;;;34.90;22.17;;;0.20;99.90;;;;;;4984042;28;20214;-73
2021/01/13 09:56:45;;;;;;;27.92;18.38;;;0.20;99.90;;;;;;4985656;28;20203;-73
2021/01/13 09:59:30;;;;;;;32.63;21.30;;;0.30;99.90;;;;;;4980055;28;20208;-73
2021/01/13 10:02:20;;;;;;;32.85;20.65;;;0.40;99.90;;;;;;4983832;28;20817;-73
2021/01/13 10:05:06;;;;;;;18.75;11.82;;;0.60;99.90;;;;;;4989539;28;20300;-73
2021/01/13 10:07:54;;;;;;;22.58;14.80;;;0.70;99.90;;;;;;4984626;28;20295;-73
2021/01/13 10:10:40;;;;;;;24.73;14.95;;;0.80;99.90;;;;;;4984547;28;20762;-73
2021/01/13 10:13:27;;;;;;;18.15;12.00;;;1.00;99.90;;;;;;4989006;28;20681;-72
2021/01/13 10:16:13;;;;;;;23.30;11.95;;;1.20;99.90;;;;;;4985001;28;20241;-73
2021/01/13 10:19:01;;;;;;;22.85;10.63;;;1.40;99.90;;;;;;4987307;28;20739;-73
2021/01/13 10:21:48;;;;;;;17.30;9.70;;;1.60;99.90;;;;;;4986006;28;20207;-73
2021/01/13 10:29:46;;;;;;;18.30;10.40;;;2.20;99.90;;;;;;5648317;22;20271;-72
2021/01/13 10:32:31;;;;;;;18.63;10.05;;;2.50;99.90;;;;;;4976535;28;20746;-72
2021/01/13 10:35:18;;;;;;;16.15;7.95;;;3.00;99.90;;;;;;4979562;28;20207;-72
2021/01/13 10:38:04;;;;;;;20.92;9.57;;;3.30;99.90;;;;;;4982822;28;20723;-72
2021/01/13 10:40:53;;;;;;;15.15;8.45;;;3.60;99.90;;;;;;4977671;28;20306;-73
2021/01/13 10:43:42;;;;;;;17.77;8.20;;;4.00;99.90;;;;;;4979658;28;20248;-72
2021/01/13 10:46:40;;;;;;;15.25;8.13;;;4.10;99.90;;;;;;4982422;28;20204;-71
2021/01/13 10:49:29;;;;;;;16.95;8.05;;;4.00;99.90;;;;;;4988467;28;20278;-73
2021/01/13 10:52:15;;;;;;;13.70;8.00;;;4.00;99.90;;;;;;4993266;28;20230;-73
2021/01/13 10:55:03;;;;;;;16.05;8.45;;;3.90;99.90;;;;;;4987719;28;20732;-72
2021/01/13 10:57:50;;;;;;;18.23;8.07;;;3.70;99.90;;;;;;4979590;28;20207;-72
2021/01/13 11:00:35;;;;;;;11.68;7.32;;;3.60;99.90;;;;;;4992914;28;20210;-72
2021/01/13 11:03:21;;;;;;;25.38;9.98;;;3.60;99.90;;;;;;4993188;28;20641;-73
2021/01/13 11:06:18;;;;;;;18.23;8.45;;;3.60;99.90;;;;;;4992431;28;20202;-72
2021/01/13 11:09:04;;;;;;;20.65;10.02;;;3.50;99.90;;;;;;4985879;28;20912;-73
2021/01/13 11:11:50;;;;;;;22.55;9.65;;;3.50;99.90;;;;;;4994967;28;21635;-73
2021/01/13 11:14:47;;;;;;;17.38;10.23;;;3.50;99.90;;;;;;4991385;28;20696;-72
2021/01/13 11:17:33;;;;;;;19.10;9.75;;;3.40;99.90;;;;;;4991519;28;20251;-72
2021/01/13 11:20:22;;;;;;;14.02;8.23;;;3.50;99.90;;;;;;4981063;28;20787;-72
2021/01/13 11:23:08;;;;;;;21.92;10.38;;;3.50;99.90;;;;;;4990492;28;20221;-72
2021/01/13 11:25:54;;;;;;;26.05;10.52;;;3.50;99.90;;;;;;4984255;28;20292;-73
2021/01/13 11:28:40;;;;;;;16.45;8.98;;;3.40;99.90;;;;;;4984456;28;20305;-73
2021/01/13 11:31:26;;;;;;;17.58;9.43;;;3.40;99.90;;;;;;4984799;28;20284;-73
2021/01/13 11:34:14;;;;;;;23.40;9.68;;;3.40;99.90;;;;;;4987138;28;20215;-73
2021/01/13 11:37:20;;;;;;;15.77;9.35;;;3.40;99.90;;;;;;4988918;28;20198;-72
2021/01/13 11:40:31;;;;;;;14.80;10.00;;;3.40;99.90;;;;;;4983614;28;20285;-72
2021/01/13 11:44:00;;;;;;;17.67;9.77;;;3.40;99.90;;;;;;4994280;28;20223;-73
2021/01/13 11:46:48;;;;;;;16.02;8.80;;;3.60;99.90;;;;;;4982139;28;20227;-72
2021/01/13 11:49:48;;;;;;;15.35;8.75;;;3.60;99.90;;;;;;4983703;28;20626;-72
2021/01/13 11:52:35;;;;;;;17.02;9.32;;;3.70;99.90;;;;;;4981861;28;20350;-72
2021/01/13 11:55:27;;;;;;;19.90;8.88;;;3.80;99.90;;;;;;4981216;28;20201;-72
2021/01/13 11:58:16;;;;;;;30.17;8.80;;;3.90;99.90;;;;;;4982197;28;20331;-72
2021/01/13 12:01:01;;;;;;;14.07;9.27;;;3.90;99.90;;;;;;4979938;28;20267;-72
2021/01/13 12:03:56;;;;;;;13.35;8.65;;;3.90;99.90;;;;;;4981068;28;20207;-72
2021/01/13 12:06:55;;;;;;;13.70;8.25;;;4.00;99.90;;;;;;4982753;28;21986;-73
2021/01/13 12:09:42;;;;;;;22.00;8.95;;;4.00;99.90;;;;;;4985505;28;20223;-71
2021/01/13 12:12:29;;;;;;;17.00;9.32;;;4.00;99.90;;;;;;4977363;28;20340;-71
2021/01/13 12:15:15;;;;;;;16.48;9.77;;;4.00;99.90;;;;;;4983533;28;20206;-72
2021/01/13 12:18:03;;;;;;;16.17;8.98;;;4.00;99.90;;;;;;4981453;28;20318;-72
2021/01/13 12:20:49;;;;;;;24.00;9.88;;;4.10;99.90;;;;;;4985118;28;20615;-72
2021/01/13 12:23:36;;;;;;;17.08;10.18;;;4.20;99.90;;;;;;4982215;28;20277;-72
2021/01/13 12:26:27;;;;;;;26.58;9.55;;;4.30;99.90;;;;;;4979614;28;20206;-72
2021/01/13 12:29:18;;;;;;;17.42;9.93;;;4.40;99.90;;;;;;4980065;28;20238;-72
2021/01/13 12:32:06;;;;;;;14.20;8.38;;;4.40;99.90;;;;;;4981066;28;20232;-72
2021/01/13 12:34:56;;;;;;;23.88;8.93;;;4.50;99.90;;;;;;4986701;28;20282;-73
2021/01/13 12:37:45;;;;;;;17.48;9.10;;;4.50;99.90;;;;;;4986187;28;20242;-72
2021/01/13 12:40:32;;;;;;;13.85;9.35;;;4.50;99.90;;;;;;4981894;28;20351;-72
2021/01/13 12:43:20;;;;;;;10.88;7.70;;;4.40;99.90;;;;;;4981455;28;20215;-72
2021/01/13 12:46:05;;;;;;;10.88;6.38;;;4.40;99.90;;;;;;4981209;28;20214;-72
2021/01/13 12:48:50;;;;;;;9.00;6.88;;;4.20;99.90;;;;;;4983069;28;20589;-72
2021/01/13 12:51:36;;;;;;;10.13;5.50;;;4.20;99.90;;;;;;4967164;28;20210;-72
2021/01/13 12:54:21;;;;;;;13.68;4.97;;;4.10;99.90;;;;;;4982813;28;20231;-72
2021/01/13 12:57:07;;;;;;;9.55;4.20;;;4.00;99.90;;;;;;4979808;28;20692;-72
2021/01/13 12:59:53;;;;;;;12.10;4.10;;;3.90;99.90;;;;;;4981842;28;20254;-72
2021/01/13 13:02:39;;;;;;;12.30;4.13;;;3.80;99.90;;;;;;4981389;28;20203;-72
2021/01/13 13:05:24;;;;;;;14.45;3.78;;;3.80;99.90;;;;;;4984954;28;20234;-72
2021/01/13 13:08:10;;;;;;;8.55;4.10;;;3.80;99.90;;;;;;4981685;28;20230;-72
2021/01/13 13:10:55;;;;;;;6.70;3.30;;;3.90;99.90;;;;;;4980336;28;20266;-72
2021/01/13 13:13:40;;;;;;;8.07;3.00;;;3.80;99.90;;;;;;4985017;28;20206;-72
2021/01/13 13:16:27;;;;;;;10.45;3.40;;;3.80;99.90;;;;;;4987346;28;20311;-72
2021/01/13 13:19:13;;;;;;;9.07;3.15;;;3.90;99.90;;;;;;4990110;28;20281;-72
2021/01/13 13:21:58;;;;;;;11.38;3.60;;;4.00;99.90;;;;;;4988046;28;20581;-71
2021/01/13 13:24:43;;;;;;;9.90;3.42;;;4.10;99.90;;;;;;4987648;28;20246;-71
2021/01/13 13:27:28;;;;;;;9.82;2.88;;;4.00;99.90;;;;;;4989333;28;20611;-72
2021/01/13 13:30:14;;;;;;;7.68;3.22;;;3.90;99.90;;;;;;4992060;28;20238;-72
2021/01/13 13:33:00;;;;;;;14.45;5.13;;;3.90;99.90;;;;;;4983782;28;20266;-72
2021/01/13 13:35:45;;;;;;;11.30;3.67;;;3.90;99.90;;;;;;4986714;28;20211;-72
2021/01/13 13:38:30;;;;;;;9.45;3.88;;;4.00;99.90;;;;;;4986096;28;20320;-72
2021/01/13 13:41:16;;;;;;;9.98;4.57;;;3.90;99.90;;;;;;4989045;28;20583;-72
2021/01/13 13:44:02;;;;;;;6.20;2.85;;;3.90;99.90;;;;;;4989922;28;20263;-72
2021/01/13 13:46:47;;;;;;;6.35;3.33;;;3.80;99.90;;;;;;4987734;28;20271;-72
2021/01/13 13:49:33;;;;;;;6.90;3.30;;;3.80;99.90;;;;;;4985249;28;20274;-72
2021/01/13 13:52:18;;;;;;;10.20;2.60;;;3.80;99.90;;;;;;4983911;28;20234;-71
2021/01/13 13:55:04;;;;;;;16.02;3.55;;;3.80;99.90;;;;;;4987332;28;20242;-71
2021/01/13 13:57:49;;;;;;;12.27;2.65;;;3.80;99.90;;;;;;4989613;28;20205;-71
2021/01/13 14:00:35;;;;;;;10.98;4.20;;;3.80;99.90;;;;;;4980999;28;20231;-72
2021/01/13 14:03:20;;;;;;;7.85;2.78;;;3.70;99.90;;;;;;4983107;28;20261;-72
2021/01/13 14:06:06;;;;;;;7.50;2.47;;;3.80;99.90;;;;;;4987828;28;20680;-72
2021/01/13 14:08:51;;;;;;;6.68;2.35;;;3.80;99.90;;;;;;4981762;28;20703;-72
2021/01/13 14:11:40;;;;;;;8.45;2.65;;;3.90;99.90;;;;;;4984405;28;20203;-72
2021/01/13 14:14:25;;;;;;;4.28;2.40;;;3.90;99.90;;;;;;4992018;28;20572;-72
2021/01/13 14:17:10;;;;;;;14.00;3.60;;;3.90;99.90;;;;;;4983971;28;20203;-72
2021/01/13 14:19:55;;;;;;;5.63;3.20;;;3.90;99.90;;;;;;4983961;28;20285;-72
2021/01/13 14:22:42;;;;;;;8.63;2.63;;;3.90;99.90;;;;;;4980241;28;20302;-72
2021/01/13 14:25:27;;;;;;;6.75;2.88;;;3.80;99.90;;;;;;4984700;28;20766;-72
2021/01/13 14:28:12;;;;;;;7.05;2.33;;;3.90;99.90;;;;;;4990639;28;20263;-72
2021/01/13 14:30:57;;;;;;;9.63;2.65;;;3.80;99.90;;;;;;4981951;28;20297;-72
2021/01/13 14:33:42;;;;;;;8.45;2.53;;;3.80;99.90;;;;;;4980336;28;20790;-72
2021/01/13 14:36:28;;;;;;;4.63;2.25;;;3.80;99.90;;;;;;4988545;28;20202;-72
2021/01/13 14:39:15;;;;;;;14.98;2.47;;;3.80;99.90;;;;;;4987160;28;20278;-71
2021/01/13 14:42:05;;;;;;;9.48;2.78;;;3.80;99.90;;;;;;4990247;28;20242;-72
2021/01/13 14:44:50;;;;;;;7.25;2.55;;;3.80;99.90;;;;;;4985870;28;20534;-71